MMAS

Jesus Teran International Airport

Aguascalientes, Mexico
TAF MMAS 171637Z 1718/1818 22010KT P6SM BKN200 BECMG 1801/1802 20005KT FM181700 20010KT P6SM SCT200
Issued Valid From Valid To
Nov-17 @ 16:37 UTC
(5 hours ago)
Nov-17 @ 18:00 UTC
(4 hours ago)
Nov-18 @ 18:00 UTC
(in 20 hours)
Nov-17 @ 18:00 to Nov-18 @ 01:00
TAF MMAS 171637Z 1718/1818 22010KT P6SM BKN200
Wind Visibility Clouds
220° at 10 knots Greater than 6 miles
  • Broken at 20,000' AGL
Becoming Nov-18 @ 01:00 to Nov-18 @ 17:00
BECMG 1801/1802 20005KT
Wind Visibility Clouds
200° at 5 knots Greater than 6 miles
  • Broken at 20,000' AGL
From Nov-18 @ 17:00 to Nov-18 @ 18:00
FM181700 20010KT P6SM SCT200
Wind Visibility Clouds
200° at 10 knots Greater than 6 miles
  • Scattered at 20,000' AGL
TAF MMAS 171637Z 1718/1818 22010KT P6SM BKN200 BECMG 1801/1802 20005KT FM181700 20010KT P6SM SCT200
Issued Nov-17 @ 16:37 UTC
(5 hours ago)
Valid From Nov-17 @ 18:00 UTC
(4 hours ago)
Valid To Nov-18 @ 18:00 UTC
(in 20 hours)
Nov-17 @ 18:00 - Nov-18 @ 01:00
Wind Visibility
220° at 10 knots Greater than 6 miles
Clouds
  • Broken at 20,000' AGL
Becoming Nov-18 @ 01:00 - Nov-18 @ 17:00
Wind Visibility
200° at 5 knots Greater than 6 miles
Clouds
  • Broken at 20,000' AGL
From Nov-18 @ 17:00 - Nov-18 @ 18:00
Wind Visibility
200° at 10 knots Greater than 6 miles
Clouds
  • Scattered at 20,000' AGL